createdAt,value
2018-08-22T02:14:53.056Z,8.70
2018-08-22T06:36:29.476Z,11.67
2018-08-22T13:34:56.091Z,13.10
2018-08-22T13:37:45.357Z,16.07
2018-08-22T15:11:48.915Z,6.97
2018-08-22T15:14:16.747Z,8.60
2018-08-22T15:17:03.183Z,8.00
2018-08-22T15:19:30.924Z,8.10
2018-08-22T15:21:58.565Z,7.27
2018-08-22T15:24:27.281Z,8.40
2018-08-22T15:26:55.012Z,10.57
2018-08-22T15:29:23.154Z,9.53
2018-08-22T15:31:51.835Z,9.53
2018-08-22T15:34:20.487Z,7.63
2018-08-22T15:36:52.836Z,9.30
2018-08-22T15:39:23.544Z,9.97
2018-08-22T15:42:10.278Z,12.17
2018-08-22T15:44:42.034Z,10.37
2018-08-22T15:47:14.393Z,8.40
2018-08-22T15:49:42.717Z,10.00
2018-08-22T15:52:10.408Z,8.33
2018-08-22T15:54:39.589Z,7.67
2018-08-22T15:57:08.446Z,9.40
2018-08-22T15:59:36.600Z,8.70
2018-08-22T16:02:04.847Z,9.70
2018-08-22T16:04:48.258Z,10.27
2018-08-22T16:07:18.653Z,10.33
2018-08-22T16:09:46.382Z,8.60
2018-08-22T16:12:18.430Z,6.97
2018-08-22T16:14:46.232Z,6.83
2018-08-22T16:17:14.596Z,7.30
2018-08-22T16:19:42.305Z,6.70
2018-08-22T16:22:10.196Z,5.80
2018-08-22T16:24:39.774Z,5.90
2018-08-22T16:27:07.794Z,5.87
2018-08-22T16:29:35.539Z,6.87
2018-08-22T16:32:05.953Z,6.07
2018-08-22T16:34:33.689Z,7.63
2018-08-22T16:37:01.468Z,6.47
2018-08-22T16:39:41.412Z,8.00
2018-08-22T16:42:10.252Z,7.93
2018-08-22T16:44:38.325Z,7.90
2018-08-22T16:47:06.209Z,8.53
2018-08-22T16:49:34.131Z,8.73
2018-08-22T16:52:01.906Z,8.70
2018-08-22T16:54:29.838Z,9.70
2018-08-22T16:56:57.786Z,10.50
2018-08-22T16:59:25.879Z,8.40
2018-08-22T17:01:53.987Z,8.13
2018-08-22T17:04:22.007Z,9.60
2018-08-22T17:06:49.857Z,9.00
2018-08-22T17:09:17.592Z,8.60
2018-08-22T17:11:45.448Z,8.23
2018-08-22T17:14:13.432Z,8.23
2018-08-22T17:16:41.245Z,9.80
2018-08-22T17:19:08.941Z,9.73
2018-08-22T17:21:36.830Z,9.10
2018-08-22T17:24:04.877Z,9.87
2018-08-22T17:26:32.517Z,9.23
2018-08-22T17:29:00.532Z,9.30
2018-08-22T17:31:29.359Z,11.13
2018-08-22T17:33:59.525Z,9.63
2018-08-22T17:36:27.469Z,8.47
2018-08-22T17:38:56.440Z,8.90
2018-08-22T17:41:25.673Z,9.40
2018-08-22T17:44:13.003Z,8.57
2018-08-22T17:46:47.487Z,9.93
2018-08-22T17:49:32.584Z,9.40
2018-08-22T17:52:06.920Z,9.07
2018-08-22T17:54:35.119Z,8.23
2018-08-22T17:57:11.412Z,8.17
2018-08-22T17:59:39.868Z,7.80
2018-08-22T18:02:07.509Z,8.60
2018-08-22T18:04:46.883Z,8.07
2018-08-22T18:07:16.273Z,10.13
2018-08-22T18:09:44.539Z,9.10
2018-08-22T18:12:12.310Z,7.90
2018-08-22T18:14:40.129Z,9.50
2018-08-22T18:17:08.292Z,9.30
2018-08-22T18:19:37.974Z,9.87
2018-08-22T18:22:06.490Z,10.40
2018-08-22T18:24:41.574Z,8.87
2018-08-22T18:27:13.331Z,10.20
2018-08-22T18:29:44.179Z,10.70
2018-08-22T18:32:13.609Z,11.80
2018-08-22T18:34:56.817Z,9.70
2018-08-22T18:37:25.699Z,8.57
2018-08-22T18:40:08.487Z,10.30
2018-08-22T18:42:36.690Z,11.77
2018-08-22T18:45:04.661Z,8.40
2018-08-22T18:47:34.706Z,10.33
2018-08-22T18:50:02.873Z,10.73
2018-08-22T18:52:31.214Z,11.07
2018-08-22T18:54:59.972Z,11.10
2018-08-22T18:57:28.691Z,11.53
2018-08-22T18:59:56.433Z,11.73
2018-08-22T19:02:25.270Z,10.40
2018-08-22T19:04:53.141Z,11.50
2018-08-22T19:07:21.434Z,11.00
2018-08-22T19:09:49.605Z,11.80
2018-08-22T19:12:17.425Z,11.17
2018-08-22T19:14:46.695Z,11.13
2018-08-22T19:17:15.895Z,12.17
2018-08-22T19:19:44.966Z,12.00
2018-08-22T19:22:16.557Z,11.90
2018-08-22T19:25:03.396Z,11.47
2018-08-22T19:27:32.569Z,10.63
2018-08-22T19:30:06.702Z,10.97
2018-08-22T19:32:38.899Z,11.80
2018-08-22T19:35:20.444Z,12.70
2018-08-22T19:37:56.667Z,11.50
2018-08-22T19:40:29.487Z,11.37
2018-08-22T19:42:59.628Z,11.63
2018-08-22T19:45:28.962Z,12.70
2018-08-22T19:47:58.795Z,11.67
2018-08-22T19:50:29.335Z,12.73
2018-08-22T19:52:57.373Z,12.73
2018-08-22T19:55:30.347Z,11.10
2018-08-22T19:58:00.098Z,10.10
2018-08-22T20:00:30.108Z,10.00
2018-08-22T20:02:58.615Z,10.80
2018-08-22T20:05:43.614Z,9.73
2018-08-22T20:08:14.467Z,11.23
2018-08-22T20:10:43.256Z,9.67
2018-08-22T20:13:13.094Z,10.53
2018-08-22T20:15:43.492Z,10.53
2018-08-22T20:18:12.580Z,8.33
2018-08-22T20:20:59.428Z,9.97
2018-08-22T20:23:31.363Z,10.10
2018-08-22T20:26:01.641Z,10.87
2018-08-22T20:28:39.902Z,10.40
2018-08-22T20:35:37.493Z,9.50
2018-08-22T20:38:24.937Z,11.23
2018-08-22T20:52:57.883Z,11.13
2018-08-22T20:56:02.795Z,11.03
2018-08-22T21:02:23.686Z,10.43
2018-08-22T21:04:58.351Z,12.07
2018-08-22T21:07:52.428Z,11.53
2018-08-22T21:10:50.693Z,10.40
2018-08-22T21:13:44.433Z,11.93
2018-08-22T21:19:04.783Z,12.00
2018-08-22T21:21:50.298Z,10.03
2018-08-22T21:25:01.220Z,11.27
2018-08-22T21:28:00.521Z,10.97
2018-08-22T21:31:18.917Z,10.73
2018-08-22T21:33:56.368Z,11.10
2018-08-22T21:36:56.360Z,12.17
